Time;durP1;ratioP1;P1;durP2;ratioP2;P2;SDS_P1;SDS_P2;PMS_P1;PMS_P2;Temp;Humidity;BMP_temperature;BMP_pressure;BME280_temperature;BME280_humidity;BME280_pressure;Samples;Min_cycle;Max_cycle;Signal;HPM_P1;HPM_P2
2023/03/02 00:02:30;;;;;;;24.98;11.77;;;;;;;1.60;68.10;100173.63;12205378;19;21620;-80
2023/03/02 00:06:35;;;;;;;22.33;10.88;;;;;;;1.60;69.13;100179.91;12206616;19;20002;-82
2023/03/02 00:10:37;;;;;;;31.60;11.57;;;;;;;1.59;69.33;100180.94;12186537;19;20170;-80
2023/03/02 00:14:39;;;;;;;27.17;11.25;;;;;;;1.55;69.77;100176.91;12206348;19;20022;-80
2023/03/02 00:18:40;;;;;;;20.65;10.02;;;;;;;1.45;70.02;100175.47;12199731;19;20736;-80
2023/03/02 00:22:43;;;;;;;21.05;9.98;;;;;;;1.32;70.50;100168.78;12219316;19;20010;-81
2023/03/02 00:26:45;;;;;;;18.40;10.05;;;;;;;1.18;71.37;100172.25;12208759;19;20003;-81
2023/03/02 00:30:47;;;;;;;21.88;9.82;;;;;;;1.05;71.77;100177.44;12182451;19;20007;-81
2023/03/02 00:34:49;;;;;;;22.17;10.27;;;;;;;0.90;72.46;100170.06;12206917;19;20011;-80
2023/03/02 00:38:51;;;;;;;22.97;10.33;;;;;;;0.79;73.74;100166.91;12202181;19;20015;-81
2023/03/02 00:42:52;;;;;;;18.23;10.13;;;;;;;0.73;73.89;100159.47;12184327;19;20468;-81
2023/03/02 00:46:54;;;;;;;22.60;9.30;;;;;;;0.62;74.76;100160.72;12207450;19;20726;-82
2023/03/02 00:50:59;;;;;;;22.02;10.00;;;;;;;0.56;74.62;100164.97;12211198;19;20006;-81
2023/03/02 00:55:01;;;;;;;21.70;9.00;;;;;;;0.53;76.66;100161.78;12196335;19;20022;-81
2023/03/02 00:59:04;;;;;;;23.40;9.13;;;;;;;0.51;76.62;100156.53;12217786;19;20010;-82
2023/03/02 01:03:07;;;;;;;20.88;9.18;;;;;;;0.51;76.59;100161.97;12207031;19;20018;-81
2023/03/02 01:07:11;;;;;;;16.10;6.20;;;;;;;0.51;76.02;100155.69;12193773;19;20019;-80
2023/03/02 01:11:15;;;;;;;19.20;9.40;;;;;;;0.44;76.38;100153.66;12211272;19;20018;-80
2023/03/02 01:15:16;;;;;;;20.55;9.20;;;;;;;0.39;77.63;100150.66;12212082;19;20019;-79
2023/03/02 01:19:18;;;;;;;23.38;9.40;;;;;;;0.31;78.03;100139.84;12187904;19;20010;-80
2023/03/02 01:23:20;;;;;;;21.73;10.20;;;;;;;0.24;78.13;100122.59;12208161;19;20006;-80
2023/03/02 01:27:21;;;;;;;21.73;9.45;;;;;;;0.20;78.30;100132.91;12211548;19;20010;-80
2023/03/02 01:31:25;;;;;;;27.17;10.70;;;;;;;0.13;78.86;100122.97;12189289;19;20013;-80
2023/03/02 01:35:26;;;;;;;22.90;10.23;;;;;;;0.06;78.72;100121.97;12210483;19;20027;-80
2023/03/02 01:39:28;;;;;;;25.17;9.95;;;;;;;0.00;78.73;100120.81;12210663;19;20007;-81
2023/03/02 01:43:30;;;;;;;20.75;8.35;;;;;;;-0.04;78.38;100123.00;12183715;19;20035;-80
2023/03/02 01:47:35;;;;;;;22.57;10.10;;;;;;;-0.04;78.33;100116.75;12206439;19;20047;-80
2023/03/02 01:51:46;;;;;;;20.75;8.43;;;;;;;-0.05;79.07;100113.19;12179410;19;20496;-81
2023/03/02 01:55:49;;;;;;;20.10;8.50;;;;;;;-0.08;79.89;100110.84;12210057;19;20491;-81
2023/03/02 01:59:54;;;;;;;20.30;9.57;;;;;;;-0.13;79.61;100107.81;12205045;19;20006;-81
2023/03/02 02:03:56;;;;;;;19.48;9.35;;;;;;;-0.19;80.17;100103.06;12182541;19;20018;-79
2023/03/02 02:07:58;;;;;;;21.75;9.27;;;;;;;-0.27;80.33;100097.66;12207501;19;20051;-79
2023/03/02 02:11:59;;;;;;;25.40;9.30;;;;;;;-0.33;80.78;100092.94;12212907;19;20011;-81
2023/03/02 02:16:01;;;;;;;19.25;9.10;;;;;;;-0.41;81.45;100093.00;12189300;19;20000;-81
2023/03/02 02:20:23;;;;;;;19.38;8.23;;;;;;;-0.46;81.85;100086.22;12207212;19;20014;-81
2023/03/02 02:24:27;;;;;;;20.58;9.07;;;;;;;-0.49;82.99;100081.13;12206790;19;20109;-80
2023/03/02 02:28:47;;;;;;;23.73;9.18;;;;;;;-0.50;82.79;100079.47;12190682;19;20006;-81
2023/03/02 02:32:52;;;;;;;18.50;8.60;;;;;;;-0.53;82.82;100079.81;12210963;19;20002;-81
2023/03/02 02:36:58;;;;;;;19.58;9.85;;;;;;;-0.57;82.87;100075.72;12189962;19;20013;-81
2023/03/02 02:41:03;;;;;;;17.13;8.00;;;;;;;-0.60;83.07;100067.94;12211725;19;20002;-81
2023/03/02 02:45:19;;;;;;;21.20;9.48;;;;;;;-0.63;83.05;100065.59;12207399;19;20110;-81
2023/03/02 02:49:38;;;;;;;22.70;9.20;;;;;;;-0.63;82.77;100056.63;12186405;19;20021;-81
2023/03/02 02:53:57;;;;;;;19.20;8.25;;;;;;;-0.61;83.78;100065.44;12208789;19;20010;-81
2023/03/02 02:58:08;;;;;;;20.23;8.90;;;;;;;-0.60;83.39;100064.41;12189100;19;20007;-81
2023/03/02 03:02:18;;;;;;;20.95;8.93;;;;;;;-0.59;83.72;100066.13;12239051;19;20003;-81
2023/03/02 03:06:24;;;;;;;19.45;8.45;;;;;;;-0.57;83.58;100056.78;12254508;19;20010;-81
2023/03/02 03:10:38;;;;;;;20.80;8.43;;;;;;;-0.55;83.89;100060.16;12198186;19;20014;-81
2023/03/02 03:14:40;;;;;;;22.13;8.70;;;;;;;-0.49;83.01;100053.22;12251917;19;20013;-81
2023/03/02 03:18:48;;;;;;;18.52;8.55;;;;;;;-0.51;82.86;100045.25;12248491;19;19995;-81
2023/03/02 03:22:52;;;;;;;20.30;9.10;;;;;;;-0.55;82.87;100049.34;12226308;19;20006;-81
2023/03/02 03:26:55;;;;;;;20.55;9.15;;;;;;;-0.57;82.80;100053.22;12207980;19;20010;-81
2023/03/02 03:30:58;;;;;;;16.02;7.97;;;;;;;-0.61;82.89;100052.72;12185863;19;20023;-81
2023/03/02 03:35:00;;;;;;;18.67;7.90;;;;;;;-0.64;82.78;100042.25;12202219;19;20006;-81
2023/03/02 03:39:05;;;;;;;21.92;8.75;;;;;;;-0.66;83.06;100046.97;12206062;19;20397;-81
2023/03/02 03:43:08;;;;;;;20.30;8.87;;;;;;;-0.70;83.08;100046.50;12181702;19;20059;-81
2023/03/02 03:47:09;;;;;;;19.83;8.73;;;;;;;-0.71;83.49;100052.94;12206778;19;20640;-80
2023/03/02 03:51:11;;;;;;;22.00;9.40;;;;;;;-0.72;83.49;100058.50;12191806;19;20027;-81
2023/03/02 03:55:13;;;;;;;20.73;8.10;;;;;;;-0.75;84.08;100061.53;12179108;19;20562;-80
2023/03/02 03:59:20;;;;;;;19.92;10.00;;;;;;;-0.78;84.27;100060.03;12199113;19;20669;-81
2023/03/02 04:03:26;;;;;;;22.13;9.25;;;;;;;-0.81;84.80;100056.81;12199541;19;20928;-80
2023/03/02 04:07:27;;;;;;;18.00;7.93;;;;;;;-0.85;86.25;100058.19;12178440;19;20453;-81
2023/03/02 04:11:34;;;;;;;20.60;8.80;;;;;;;-0.86;86.90;100059.19;12200349;19;20034;-81
2023/03/02 04:15:38;;;;;;;18.23;8.00;;;;;;;-0.90;87.61;100065.97;12203186;19;20015;-81
2023/03/02 04:19:40;;;;;;;;;;;;;;;-0.92;87.63;100066.13;12177905;19;20007;-80
2023/03/02 04:23:42;;;;;;;17.08;7.95;;;;;;;-0.98;88.23;100062.25;12196632;19;19907;-81
2023/03/02 04:27:46;;;;;;;21.27;9.25;;;;;;;-0.98;87.38;100067.66;12183555;19;20023;-80
2023/03/02 04:31:48;;;;;;;19.98;9.93;;;;;;;-1.02;87.69;100069.00;12200986;19;20020;-81
2023/03/02 04:35:53;;;;;;;20.20;8.70;;;;;;;-0.99;87.79;100078.63;12199175;19;21487;-81
2023/03/02 04:39:56;;;;;;;22.30;9.65;;;;;;;-0.93;87.88;100076.09;12178928;19;20381;-82
2023/03/02 04:43:57;;;;;;;19.83;9.40;;;;;;;-0.83;87.37;100084.06;12199586;19;20031;-82
2023/03/02 04:47:59;;;;;;;22.88;9.73;;;;;;;-0.75;86.91;100081.31;12201516;19;20054;-82
2023/03/02 04:52:01;;;;;;;19.33;8.95;;;;;;;-0.72;86.60;100089.09;12178908;19;20473;-81
2023/03/02 04:56:03;;;;;;;22.83;8.48;;;;;;;-0.66;87.46;100094.84;12198855;19;20027;-81
2023/03/02 05:00:08;;;;;;;16.83;7.90;;;;;;;-0.58;86.12;100087.59;12201096;19;20590;-80
2023/03/02 05:04:11;;;;;;;20.83;8.27;;;;;;;-0.58;87.13;100079.47;12184826;19;20272;-81
2023/03/02 05:08:13;;;;;;;21.58;9.02;;;;;;;-0.47;86.96;100083.69;12201541;19;20039;-81
2023/03/02 05:12:17;;;;;;;24.45;10.07;;;;;;;-0.43;86.62;100076.91;12199729;19;20007;-81
2023/03/02 05:16:20;;;;;;;18.00;9.15;;;;;;;-0.41;86.19;100074.03;12175547;19;19999;-81
2023/03/02 05:20:26;;;;;;;27.05;9.23;;;;;;;-0.39;86.75;100064.69;12197072;19;20007;-81
2023/03/02 05:24:28;;;;;;;24.65;9.40;;;;;;;-0.31;86.28;100074.69;12192721;19;20010;-81
2023/03/02 05:28:30;;;;;;;23.17;9.10;;;;;;;-0.26;86.00;100072.31;12176467;19;20002;-80
2023/03/02 05:32:31;;;;;;;19.98;8.77;;;;;;;-0.20;85.58;100068.06;12194026;19;20007;-81
2023/03/02 05:36:33;;;;;;;25.48;9.52;;;;;;;-0.15;85.67;100066.53;12204247;19;20381;-82
2023/03/02 05:40:36;;;;;;;24.05;9.30;;;;;;;-0.12;85.36;100065.28;12185844;19;20007;-81
2023/03/02 05:44:38;;;;;;;20.30;8.73;;;;;;;-0.06;85.03;100070.00;12207798;19;20035;-81
2023/03/02 05:48:41;;;;;;;20.90;8.68;;;;;;;-0.03;84.83;100072.38;12206932;19;20035;-81
2023/03/02 05:52:44;;;;;;;;;;;;;;;0.01;84.65;100076.44;12182196;19;20003;-82
2023/03/02 05:56:45;;;;;;;;;;;;;;;-0.01;84.71;100079.31;12208226;19;19907;-82
2023/03/02 06:00:51;;;;;;;18.35;8.07;;;;;;;0.04;83.93;100084.22;12183280;19;19914;-81
2023/03/02 06:04:53;;;;;;;21.98;8.48;;;;;;;0.00;84.10;100085.59;12205356;19;20369;-81
2023/03/02 06:08:55;;;;;;;19.35;8.00;;;;;;;0.02;83.89;100090.84;12205882;19;20003;-81
2023/03/02 06:12:57;;;;;;;22.00;8.43;;;;;;;0.01;83.55;100090.00;12183352;19;20014;-82
2023/03/02 06:16:58;;;;;;;19.10;8.15;;;;;;;0.05;83.15;100101.31;12206209;19;20034;-81
2023/03/02 06:21:00;;;;;;;19.13;8.85;;;;;;;0.03;83.32;100100.63;12201362;19;20491;-81
2023/03/02 06:25:02;;;;;;;20.10;9.27;;;;;;;0.09;83.18;100099.94;12180396;19;20130;-84
2023/03/02 06:29:06;;;;;;;23.73;8.68;;;;;;;0.10;83.33;100102.47;12205065;19;20010;-81
2023/03/02 06:33:08;;;;;;;17.00;7.75;;;;;;;0.14;82.71;100108.41;12204974;19;20034;-81
2023/03/02 06:37:09;;;;;;;21.48;9.05;;;;;;;0.19;82.68;100114.16;12183865;19;20037;-81
2023/03/02 06:41:11;;;;;;;20.47;8.23;;;;;;;0.22;82.49;100109.22;12204489;19;20006;-81
2023/03/02 06:45:13;;;;;;;19.02;8.65;;;;;;;0.26;82.10;100117.81;12201666;19;20467;-82
2023/03/02 06:49:15;;;;;;;19.48;9.38;;;;;;;0.27;82.08;100124.09;12183237;19;20027;-82
2023/03/02 06:53:19;;;;;;;17.67;8.32;;;;;;;0.35;81.49;100114.06;12204452;19;20070;-82
2023/03/02 06:57:23;;;;;;;18.13;8.40;;;;;;;0.36;81.56;100121.19;12205557;19;20074;-80
2023/03/02 07:01:25;;;;;;;15.82;8.25;;;;;;;0.38;81.36;100116.41;12183304;19;20006;-81
2023/03/02 07:05:30;;;;;;;19.38;8.35;;;;;;;0.45;81.02;100127.44;12206004;19;20041;-81
2023/03/02 07:09:34;;;;;;;21.05;8.85;;;;;;;0.55;80.76;100127.19;12204515;19;20010;-81
2023/03/02 07:13:39;;;;;;;17.00;8.07;;;;;;;0.62;80.25;100126.28;12184547;19;20021;-80
2023/03/02 07:17:43;;;;;;;20.75;8.93;;;;;;;0.70;80.37;100130.84;12207067;19;20066;-80
2023/03/02 07:21:44;;;;;;;22.83;8.65;;;;;;;0.76;79.79;100124.69;12189018;19;20006;-80
2023/03/02 07:25:46;;;;;;;20.80;8.32;;;;;;;0.84;79.51;100127.38;12215286;19;20006;-82
2023/03/02 07:29:49;;;;;;;17.65;7.65;;;;;;;0.91;79.10;100128.34;12208726;19;20138;-80
2023/03/02 07:33:51;;;;;;;19.67;8.70;;;;;;;1.02;78.83;100121.66;12190765;19;20002;-80
2023/03/02 07:37:53;;;;;;;17.40;8.43;;;;;;;1.11;78.26;100111.59;12229336;19;20009;-81
2023/03/02 07:41:59;;;;;;;18.30;8.30;;;;;;;1.25;77.70;100121.66;12244680;19;20017;-79
2023/03/02 07:46:04;;;;;;;25.73;10.57;;;;;;;1.36;77.44;100126.66;12218534;19;20017;-80
2023/03/02 07:50:06;;;;;;;18.63;9.07;;;;;;;1.50;76.92;100126.88;12235290;19;20010;-80
2023/03/02 07:54:08;;;;;;;19.00;9.40;;;;;;;1.65;76.75;100119.63;12228903;19;20015;-82
2023/03/02 07:58:12;;;;;;;21.73;10.10;;;;;;;1.74;75.35;100118.50;12182175;19;20099;-81
2023/03/02 08:02:16;;;;;;;20.75;10.75;;;;;;;1.95;74.79;100125.09;12205126;19;20026;-81
2023/03/02 08:06:18;;;;;;;20.15;10.48;;;;;;;2.15;74.31;100122.66;12208768;19;20003;-81
2023/03/02 08:10:21;;;;;;;19.58;9.80;;;;;;;2.25;72.98;100128.66;12185298;19;20472;-81
2023/03/02 08:14:23;;;;;;;14.90;8.60;;;;;;;2.41;72.80;100133.91;12203707;19;20503;-81
2023/03/02 08:18:26;;;;;;;20.92;9.15;;;;;;;2.54;71.25;100125.06;12209752;19;20013;-80
2023/03/02 08:22:28;;;;;;;22.98;12.98;;;;;;;2.75;70.81;100132.44;12184770;19;20488;-83
2023/03/02 08:26:32;;;;;;;18.67;10.10;;;;;;;2.99;71.10;100127.69;12205817;19;20011;-82
2023/03/02 08:30:33;;;;;;;16.88;9.10;;;;;;;3.17;69.79;100120.75;12207109;19;20078;-81
2023/03/02 08:34:38;;;;;;;19.67;8.55;;;;;;;3.29;68.99;100112.91;12185343;19;20031;-84
2023/03/02 08:38:40;;;;;;;20.10;8.77;;;;;;;3.42;67.90;100117.63;12207514;19;20476;-81
2023/03/02 08:42:42;;;;;;;19.80;9.60;;;;;;;3.55;67.23;100117.75;12191224;19;20011;-82
2023/03/02 08:46:44;;;;;;;17.60;9.57;;;;;;;3.80;67.28;100109.13;12237496;19;20278;-80
2023/03/02 08:51:21;;;;;;;19.13;8.30;;;;;;;4.13;67.09;100112.09;12264951;19;19995;-80
2023/03/02 08:55:23;;;;;;;20.45;9.18;;;;;;;4.47;66.50;100105.78;12221659;19;20009;-81
2023/03/02 08:59:26;;;;;;;15.20;8.32;;;;;;;4.69;65.21;100102.91;12254411;19;20005;-80
2023/03/02 09:03:28;;;;;;;16.80;8.68;;;;;;;4.87;64.57;100105.06;12248275;19;20013;-80
2023/03/02 09:07:30;;;;;;;17.75;8.27;;;;;;;4.97;62.53;100103.66;12231115;19;20110;-81
2023/03/02 09:11:33;;;;;;;22.33;10.23;;;;;;;5.18;63.12;100101.81;12260214;19;20017;-80
2023/03/02 09:15:39;;;;;;;21.90;9.95;;;;;;;5.33;60.94;100099.72;12260286;19;19998;-81
2023/03/02 09:19:45;;;;;;;18.75;9.52;;;;;;;5.51;61.42;100101.00;12243965;19;20093;-80
2023/03/02 09:23:46;;;;;;;19.15;9.15;;;;;;;5.66;60.38;100101.63;12258212;19;20009;-80
2023/03/02 09:27:48;;;;;;;20.92;9.73;;;;;;;5.66;58.98;100099.72;12204620;19;20113;-82
2023/03/02 09:31:50;;;;;;;17.47;8.83;;;;;;;5.68;59.40;100089.44;12217276;19;20034;-81
2023/03/02 09:35:52;;;;;;;19.25;8.60;;;;;;;5.88;58.82;100089.38;12220211;19;20356;-81
2023/03/02 09:39:54;;;;;;;21.25;8.80;;;;;;;6.14;59.34;100088.53;12201782;19;20023;-80
2023/03/02 09:44:14;;;;;;;24.02;9.55;;;;;;;6.50;58.06;100080.84;12232027;19;20006;-83
2023/03/02 09:48:42;;;;;;;17.02;8.57;;;;;;;6.74;56.73;100084.75;12216008;19;20010;-81
2023/03/02 09:53:05;;;;;;;19.10;9.43;;;;;;;6.71;55.75;100082.44;12187088;19;20007;-82
2023/03/02 09:57:31;;;;;;;18.00;8.67;;;;;;;6.80;55.20;100081.97;12218501;19;20078;-82
2023/03/02 10:01:38;;;;;;;20.52;9.05;;;;;;;6.98;55.31;100080.41;12186045;19;20024;-82
2023/03/02 10:05:43;;;;;;;17.70;9.63;;;;;;;7.33;56.02;100082.72;12207519;19;20038;-81
2023/03/02 10:09:45;;;;;;;18.98;9.90;;;;;;;7.39;53.30;100082.66;12189910;19;20011;-83
2023/03/02 10:14:02;;;;;;;17.38;9.25;;;;;;;7.48;53.82;100081.31;12211659;19;19998;-82
2023/03/02 10:18:28;;;;;;;20.27;9.45;;;;;;;7.52;52.82;100081.72;12209585;19;20007;-82
2023/03/02 10:22:54;;;;;;;22.95;9.25;;;;;;;7.74;53.38;100074.78;12185625;19;20007;-82
2023/03/02 10:27:24;;;;;;;18.10;9.05;;;;;;;7.93;51.93;100069.31;12213382;19;20014;-82
2023/03/02 10:31:29;;;;;;;16.48;8.82;;;;;;;8.10;52.33;100064.09;12188162;19;20010;-82
2023/03/02 10:35:36;;;;;;;17.60;8.85;;;;;;;8.38;52.25;100058.94;12211617;19;20030;-82
2023/03/02 10:39:38;;;;;;;19.63;8.98;;;;;;;8.58;51.52;100058.69;12210383;19;20011;-81
2023/03/02 10:43:46;;;;;;;16.75;8.85;;;;;;;8.75;50.79;100055.31;12190761;19;20011;-80
2023/03/02 10:48:02;;;;;;;16.98;8.82;;;;;;;8.79;49.66;100064.75;12209923;19;20019;-80
2023/03/02 10:52:12;;;;;;;20.73;10.63;;;;;;;8.80;50.31;100049.94;12186155;19;20392;-83
2023/03/02 10:56:20;;;;;;;15.80;8.60;;;;;;;8.87;50.00;100043.31;12208799;19;20713;-81
2023/03/02 11:00:24;;;;;;;18.85;8.90;;;;;;;8.99;49.75;100039.75;12207015;19;20046;-82
2023/03/02 11:04:26;;;;;;;18.00;8.85;;;;;;;9.17;49.96;100033.34;12181531;19;20082;-81
2023/03/02 11:08:28;;;;;;;17.25;8.10;;;;;;;9.32;49.08;100031.00;12208144;19;20026;-83
2023/03/02 11:12:34;;;;;;;16.30;7.88;;;;;;;9.53;48.48;100022.16;12216501;19;20019;-82
2023/03/02 11:16:38;;;;;;;19.52;10.18;;;;;;;9.67;48.05;100019.22;12199013;19;20002;-84
2023/03/02 11:20:46;;;;;;;18.75;8.77;;;;;;;9.96;48.24;100020.97;12220529;19;21296;-83
2023/03/02 11:24:53;;;;;;;16.95;8.57;;;;;;;10.25;47.66;100021.06;12189362;19;20006;-82
2023/03/02 11:29:09;;;;;;;17.55;9.02;;;;;;;10.44;47.46;100027.25;12204996;19;20010;-81
2023/03/02 11:33:23;;;;;;;19.63;8.55;;;;;;;10.76;46.87;100024.03;12204121;19;20485;-83
2023/03/02 11:37:46;;;;;;;16.92;9.20;;;;;;;10.81;46.06;100015.88;12184705;19;20080;-81
2023/03/02 11:41:49;;;;;;;14.45;7.65;;;;;;;10.75;44.73;100017.69;12202219;19;20006;-82
2023/03/02 11:45:57;;;;;;;18.65;8.52;;;;;;;10.96;45.35;100002.38;12183705;19;20009;-83
2023/03/02 11:50:04;;;;;;;15.32;8.45;;;;;;;11.16;44.84;100000.00;12204733;19;20523;-83
2023/03/02 11:54:32;;;;;;;20.23;11.35;;;;;;;11.25;44.06;99983.88;12201611;19;20003;-83
2023/03/02 11:58:37;;;;;;;17.67;9.13;;;;;;;11.54;43.99;99990.16;12180579;19;20018;-80
2023/03/02 12:02:40;;;;;;;16.73;8.32;;;;;;;11.91;43.05;99973.03;12200499;19;20018;-83
2023/03/02 12:06:44;;;;;;;15.95;9.07;;;;;;;12.32;42.85;99977.19;12182977;19;20010;-83
2023/03/02 12:10:59;;;;;;;17.23;10.02;;;;;;;13.02;42.01;99965.50;12203128;19;20034;-84
2023/03/02 12:15:01;;;;;;;17.70;9.00;;;;;;;13.61;40.65;99974.59;12203094;19;20062;-84
2023/03/02 12:19:15;;;;;;;14.88;9.13;;;;;;;14.08;38.71;99979.31;12183621;19;20019;-83
2023/03/02 12:23:22;;;;;;;20.25;9.82;;;;;;;14.12;38.57;99972.13;12252082;19;19995;-81
2023/03/02 12:27:32;;;;;;;17.70;9.13;;;;;;;14.39;38.72;99962.81;12235103;19;20007;-84
2023/03/02 12:31:54;;;;;;;16.90;8.98;;;;;;;15.00;37.83;99959.41;12187171;19;20110;-83
2023/03/02 12:36:09;;;;;;;17.88;9.40;;;;;;;15.17;37.86;99950.81;12207214;19;20074;-84
2023/03/02 12:40:32;;;;;;;15.15;8.70;;;;;;;15.62;36.36;99949.97;12184328;19;20396;-82
2023/03/02 12:44:59;;;;;;;16.38;8.88;;;;;;;16.02;35.91;99945.47;12207056;19;20067;-84
2023/03/02 12:49:40;;;;;;;15.55;7.90;;;;;;;16.34;35.52;99928.38;12200192;19;20014;-84
2023/03/02 12:53:42;;;;;;;12.90;8.73;;;;;;;16.58;35.20;99936.06;12215183;19;20078;-83
2023/03/02 12:57:49;;;;;;;13.63;8.47;;;;;;;16.84;34.57;99926.47;12195817;19;20024;-84
2023/03/02 13:01:51;;;;;;;16.35;8.32;;;;;;;16.99;34.84;99924.69;12215928;19;20032;-85
2023/03/02 13:06:12;;;;;;;13.82;7.95;;;;;;;17.62;34.43;99921.91;12215494;19;20341;-83
2023/03/02 13:10:51;;;;;;;17.23;8.10;;;;;;;17.88;32.82;99919.72;12195656;19;20018;-84
2023/03/02 13:14:57;;;;;;;15.05;8.43;;;;;;;17.77;32.67;99916.22;12214275;19;20018;-84
2023/03/02 13:19:04;;;;;;;11.32;7.95;;;;;;;17.79;33.31;99915.06;12193423;19;20010;-84
2023/03/02 13:23:06;;;;;;;14.65;8.90;;;;;;;17.93;32.49;99904.88;12213932;19;20086;-83
2023/03/02 13:27:16;;;;;;;20.00;8.73;;;;;;;17.15;33.11;99895.59;12210647;19;20346;-82
2023/03/02 13:31:21;;;;;;;15.18;8.35;;;;;;;15.83;34.53;99900.78;12189474;19;20283;-83
2023/03/02 13:35:26;;;;;;;13.07;7.75;;;;;;;15.25;35.27;99892.78;12207750;19;20002;-82
2023/03/02 13:39:32;;;;;;;14.10;7.78;;;;;;;15.14;36.11;99882.84;12205852;19;20041;-82
2023/03/02 13:43:37;;;;;;;15.25;7.80;;;;;;;15.26;36.12;99882.56;12189374;19;20030;-84
2023/03/02 13:47:42;;;;;;;12.93;7.35;;;;;;;15.41;36.47;99871.41;12214340;19;20026;-84
2023/03/02 13:51:46;;;;;;;13.20;7.18;;;;;;;15.76;35.69;99863.28;12188552;19;20014;-85
2023/03/02 13:55:47;;;;;;;18.67;7.47;;;;;;;15.16;35.71;99863.13;12214617;19;20013;-84
2023/03/02 13:59:50;;;;;;;13.57;7.65;;;;;;;14.63;36.88;99859.78;12215036;19;20007;-83
2023/03/02 14:04:04;;;;;;;15.23;7.55;;;;;;;14.27;37.40;99860.50;12203810;19;20103;-86
2023/03/02 14:08:09;;;;;;;13.52;7.60;;;;;;;13.96;38.21;99862.34;12271695;19;19998;-81
2023/03/02 14:12:23;;;;;;;14.60;6.88;;;;;;;13.79;38.46;99859.78;12270512;19;20003;-86
2023/03/02 14:16:25;;;;;;;13.38;6.97;;;;;;;13.45;38.88;99854.63;12194756;19;20442;-83
2023/03/02 14:20:27;;;;;;;12.60;6.40;;;;;;;13.29;38.95;99852.84;12208973;19;20027;-83
2023/03/02 14:24:28;;;;;;;17.80;7.47;;;;;;;13.35;39.09;99845.41;12210724;19;20191;-84
2023/03/02 14:28:34;;;;;;;18.77;7.60;;;;;;;13.40;39.23;99849.06;12192602;19;20018;-83
2023/03/02 14:32:39;;;;;;;16.10;7.95;;;;;;;13.35;39.05;99840.69;12210249;19;20455;-84
2023/03/02 14:36:44;;;;;;;13.38;7.43;;;;;;;13.38;39.36;99847.66;12219332;19;20506;-85
2023/03/02 14:40:46;;;;;;;13.98;7.80;;;;;;;13.47;39.25;99847.97;12221831;19;20470;-83
2023/03/02 14:44:50;;;;;;;19.77;8.55;;;;;;;13.53;38.80;99844.97;12212318;19;20496;-85
2023/03/02 14:48:51;;;;;;;16.17;6.28;;;;;;;13.46;39.17;99841.63;12193018;19;20011;-83
2023/03/02 14:52:56;;;;;;;16.25;6.78;;;;;;;13.61;39.40;99836.16;12206566;19;20006;-84
2023/03/02 14:56:58;;;;;;;15.30;7.20;;;;;;;13.86;38.37;99841.00;12212085;19;20094;-83
2023/03/02 15:01:03;;;;;;;17.88;6.25;;;;;;;13.84;38.88;99842.34;12189010;19;20014;-84
2023/03/02 15:05:07;;;;;;;12.57;6.22;;;;;;;13.95;39.33;99844.06;12207946;19;20019;-84
2023/03/02 15:09:10;;;;;;;14.43;6.38;;;;;;;14.04;39.05;99847.97;12201733;19;20018;-84
2023/03/02 15:13:13;;;;;;;16.30;6.75;;;;;;;14.25;38.77;99832.25;12184508;19;20352;-85
2023/03/02 15:17:15;;;;;;;16.52;6.32;;;;;;;14.48;38.45;99835.59;12207770;19;20006;-83
2023/03/02 15:21:22;;;;;;;15.23;6.97;;;;;;;14.68;37.99;99834.81;12208587;19;20023;-84
2023/03/02 15:25:27;;;;;;;11.93;6.47;;;;;;;14.72;37.93;99841.47;12182095;19;20014;-84
2023/03/02 15:29:29;;;;;;;12.20;6.20;;;;;;;14.61;38.49;99839.81;12202591;19;20006;-84
2023/03/02 15:33:31;;;;;;;13.55;6.10;;;;;;;14.55;38.23;99836.22;12208070;19;20693;-83
2023/03/02 15:37:33;;;;;;;15.23;5.68;;;;;;;14.49;38.66;99837.28;12183192;19;20019;-84
2023/03/02 15:41:35;;;;;;;18.05;6.65;;;;;;;14.36;38.62;99844.16;12232367;19;20818;-84
2023/03/02 15:45:43;;;;;;;15.38;6.80;;;;;;;14.12;38.49;99839.13;12229745;19;20384;-83
2023/03/02 15:49:44;;;;;;;13.57;6.07;;;;;;;13.88;38.35;99841.53;12187312;19;20066;-84
2023/03/02 15:53:47;;;;;;;19.48;7.32;;;;;;;13.59;38.68;99835.59;12206829;19;20010;-84
2023/03/02 15:57:49;;;;;;;13.57;5.77;;;;;;;13.52;39.45;99839.72;12179237;19;20397;-84
2023/03/02 16:01:51;;;;;;;15.02;6.45;;;;;;;13.41;39.56;99842.44;12205100;19;20741;-83
2023/03/02 16:05:57;;;;;;;15.40;6.63;;;;;;;13.31;39.95;99844.28;12210805;19;20026;-83
2023/03/02 16:09:58;;;;;;;13.93;7.38;;;;;;;13.13;40.03;99854.66;12180902;19;20066;-83
2023/03/02 16:14:02;;;;;;;11.07;7.13;;;;;;;12.87;39.95;99855.56;12200514;19;20042;-83
2023/03/02 16:18:04;;;;;;;14.77;7.40;;;;;;;12.64;40.53;99852.06;12201860;19;20035;-84
2023/03/02 16:22:05;;;;;;;15.20;7.70;;;;;;;12.50;40.68;99857.16;12175639;19;20426;-83
2023/03/02 16:26:10;;;;;;;19.10;8.00;;;;;;;12.25;40.69;99860.47;12194096;19;20022;-81
2023/03/02 16:30:14;;;;;;;17.23;7.63;;;;;;;12.09;41.03;99856.72;12199326;19;20007;-82
2023/03/02 16:34:19;;;;;;;28.88;14.25;;;;;;;11.92;41.42;99866.19;12174865;19;20042;-81
2023/03/02 16:38:21;;;;;;;105.97;45.57;;;;;;;11.77;41.68;99861.28;12197601;19;20002;-82
2023/03/02 16:42:23;;;;;;;58.85;26.33;;;;;;;11.58;41.89;99863.50;12199174;19;20010;-83
2023/03/02 16:46:28;;;;;;;247.95;91.13;;;;;;;11.39;42.36;99876.75;12174614;19;20749;-83
2023/03/02 16:50:31;;;;;;;141.13;53.08;;;;;;;11.18;42.65;99872.84;12196548;19;20041;-83
2023/03/02 16:54:33;;;;;;;384.52;128.18;;;;;;;10.98;43.10;99872.56;12214048;19;20003;-82
2023/03/02 16:58:37;;;;;;;118.55;43.70;;;;;;;10.78;43.56;99884.91;12229008;19;20003;-81
2023/03/02 17:02:38;;;;;;;71.50;28.52;;;;;;;10.52;44.29;99885.53;12210626;19;20003;-82
2023/03/02 17:06:44;;;;;;;77.05;36.03;;;;;;;10.25;44.91;99880.59;12197649;19;21109;-81
2023/03/02 17:11:02;;;;;;;44.90;22.77;;;;;;;10.02;45.01;99898.91;12192753;19;20007;-81
2023/03/02 17:15:05;;;;;;;23.30;13.03;;;;;;;9.75;45.53;99892.25;12197891;19;20002;-81
2023/03/02 17:19:07;;;;;;;;;;;;;;;9.45;46.34;99904.25;12170416;19;20039;-82
2023/03/02 17:23:11;;;;;;;17.10;8.80;;;;;;;9.22;46.66;99909.75;12195027;19;19911;-81
2023/03/02 17:27:12;;;;;;;16.17;8.60;;;;;;;9.00;47.14;99918.56;12218818;19;20003;-83
2023/03/02 17:31:25;;;;;;;;;;;;;;;8.75;47.55;99920.69;12179608;19;20026;-81
2023/03/02 17:35:28;;;;;;;14.52;7.53;;;;;;;8.54;47.79;99924.81;12206560;19;20292;-81
2023/03/02 17:39:29;;;;;;;15.18;7.53;;;;;;;8.35;48.65;99929.47;12208500;19;20018;-80
2023/03/02 17:43:34;;;;;;;15.88;7.40;;;;;;;8.18;49.29;99941.09;12183572;19;20002;-80
2023/03/02 17:47:35;;;;;;;22.05;8.63;;;;;;;7.99;49.64;99943.00;12229973;19;20010;-83
2023/03/02 17:51:37;;;;;;;15.45;7.10;;;;;;;7.91;49.77;99942.47;12200548;19;20094;-81
2023/03/02 17:55:39;;;;;;;14.20;7.15;;;;;;;7.81;49.61;99943.03;12181254;19;20076;-82
2023/03/02 17:59:40;;;;;;;16.70;7.40;;;;;;;7.73;49.95;99949.66;12209557;19;20006;-83
2023/03/02 18:03:43;;;;;;;14.25;7.50;;;;;;;7.60;50.86;99960.75;12188673;19;20007;-81
2023/03/02 18:07:45;;;;;;;13.93;7.15;;;;;;;7.49;50.50;99967.00;12215704;19;20007;-80
2023/03/02 18:11:47;;;;;;;13.27;7.68;;;;;;;7.37;51.46;99964.16;12210308;19;20049;-81
2023/03/02 18:15:49;;;;;;;15.68;6.68;;;;;;;7.36;51.14;99972.63;12188619;19;20014;-80
2023/03/02 18:19:50;;;;;;;12.82;6.72;;;;;;;7.34;50.96;99969.25;12207825;19;20017;-80
2023/03/02 18:23:53;;;;;;;14.25;7.05;;;;;;;7.27;50.93;99975.63;12205947;19;20340;-80
2023/03/02 18:27:55;;;;;;;13.98;6.85;;;;;;;7.21;51.37;99981.19;12188523;19;21389;-80
2023/03/02 18:31:57;;;;;;;16.10;7.30;;;;;;;7.16;51.24;99984.56;12206132;19;20010;-81
2023/03/02 18:36:01;;;;;;;13.70;6.82;;;;;;;7.11;51.37;99989.03;12208971;19;20074;-81
2023/03/02 18:40:05;;;;;;;13.32;6.70;;;;;;;7.06;51.11;99978.75;12185328;19;20002;-80
2023/03/02 18:44:08;;;;;;;24.33;10.35;;;;;;;7.01;51.01;99984.91;12204226;19;20082;-81
2023/03/02 18:48:10;;;;;;;20.35;8.52;;;;;;;6.94;51.08;99989.59;12206638;19;20033;-81